createdAt,value
2018-07-15T00:04:19.541Z,46.06
2018-07-15T00:09:23.183Z,46.41
2018-07-15T00:14:26.913Z,45.66
2018-07-15T00:19:30.692Z,45.31
2018-07-15T00:24:34.387Z,45.54
2018-07-15T00:29:38.098Z,45.07
2018-07-15T00:34:41.835Z,45.07
2018-07-15T00:39:45.504Z,45.27
2018-07-15T00:44:49.227Z,44.46
2018-07-15T00:49:52.981Z,44.18
2018-07-15T00:54:56.643Z,44.37
2018-07-15T01:00:00.574Z,44.71
2018-07-15T01:05:06.042Z,45.07
2018-07-15T01:10:09.693Z,45.00
2018-07-15T01:15:13.426Z,44.94
2018-07-15T01:20:17.106Z,45.44
2018-07-15T01:25:20.733Z,45.27
2018-07-15T01:30:24.397Z,45.38
2018-07-15T01:35:28.050Z,45.33
2018-07-15T01:40:31.775Z,45.84
2018-07-15T01:45:35.539Z,44.77
2018-07-15T01:50:39.179Z,45.60
2018-07-15T01:55:42.918Z,46.09
2018-07-15T02:00:46.610Z,45.51
2018-07-15T02:05:50.269Z,45.86
2018-07-15T02:10:53.941Z,45.46
2018-07-15T02:15:57.761Z,45.88
2018-07-15T02:21:01.419Z,45.90
2018-07-15T02:26:05.174Z,45.37
2018-07-15T02:31:08.845Z,45.50
2018-07-15T02:36:12.518Z,45.86
2018-07-15T02:41:16.321Z,46.09
2018-07-15T02:46:20.090Z,45.58
2018-07-15T02:51:23.738Z,45.91
2018-07-15T02:56:27.404Z,46.27
2018-07-15T03:01:31.049Z,46.49
2018-07-15T03:06:34.691Z,46.19
2018-07-15T03:11:38.410Z,46.50
2018-07-15T03:16:42.142Z,46.80
2018-07-15T03:21:45.868Z,46.60
2018-07-15T03:26:49.790Z,46.41
2018-07-15T03:31:53.477Z,46.67
2018-07-15T03:36:57.210Z,46.37
2018-07-15T03:42:01.066Z,46.88
2018-07-15T03:47:04.748Z,47.07
2018-07-15T03:52:08.472Z,46.43
2018-07-15T03:57:12.190Z,46.85
2018-07-15T04:02:15.848Z,46.91
2018-07-15T04:07:19.619Z,46.83
2018-07-15T04:12:23.346Z,46.71
2018-07-15T04:17:27.102Z,47.77
2018-07-15T04:22:30.791Z,48.06
2018-07-15T04:27:34.480Z,47.87
2018-07-15T04:32:38.211Z,47.71
2018-07-15T04:37:42.011Z,47.79
2018-07-15T04:42:45.682Z,47.46
2018-07-15T04:47:49.923Z,47.50
2018-07-15T04:52:53.784Z,47.45
2018-07-15T04:57:57.447Z,47.44
2018-07-15T05:03:01.150Z,47.21
2018-07-15T05:08:04.891Z,46.93
2018-07-15T05:13:08.534Z,47.18
2018-07-15T05:18:12.169Z,46.97
2018-07-15T05:23:15.847Z,46.75
2018-07-15T05:28:19.471Z,47.19
2018-07-15T05:33:23.231Z,47.41
2018-07-15T05:38:26.887Z,47.01
2018-07-15T05:43:30.582Z,46.84
2018-07-15T05:48:34.289Z,47.02
2018-07-15T05:53:38.003Z,47.53
2018-07-15T05:58:41.717Z,47.01
2018-07-15T06:03:45.458Z,47.46
2018-07-15T06:08:49.095Z,47.17
2018-07-15T06:13:52.795Z,46.81
2018-07-15T06:18:56.452Z,46.37
2018-07-15T06:24:00.143Z,46.76
2018-07-15T06:29:03.875Z,46.37
2018-07-15T06:34:07.585Z,46.48
2018-07-15T06:39:11.300Z,46.47
2018-07-15T06:44:15.014Z,46.63
2018-07-15T06:49:18.778Z,46.34
2018-07-15T06:54:22.470Z,46.34
2018-07-15T06:59:26.290Z,46.16
2018-07-15T07:04:29.918Z,46.82
2018-07-15T07:09:33.606Z,46.57
2018-07-15T07:14:37.342Z,46.19
2018-07-15T07:19:41.153Z,46.98
2018-07-15T07:24:44.820Z,46.44
2018-07-15T07:29:48.462Z,45.91
2018-07-15T07:34:52.147Z,46.68
2018-07-15T07:39:55.751Z,46.22
2018-07-15T07:44:59.529Z,45.64
2018-07-15T07:50:05.718Z,45.44
2018-07-15T07:55:09.408Z,45.67
2018-07-15T08:00:13.081Z,45.82
2018-07-15T08:05:16.834Z,45.59
2018-07-15T08:10:20.508Z,45.83
2018-07-15T08:15:24.247Z,45.89
2018-07-15T08:20:27.843Z,44.94
2018-07-15T08:25:31.636Z,45.42
2018-07-15T08:30:46.505Z,45.55
2018-07-15T08:35:50.170Z,45.01
2018-07-15T08:40:53.876Z,44.86
2018-07-15T08:45:57.598Z,45.35
2018-07-15T08:51:01.530Z,44.94
2018-07-15T08:56:05.216Z,45.57
2018-07-15T09:01:08.970Z,44.81
2018-07-15T09:06:12.710Z,44.89
2018-07-15T09:11:16.493Z,45.10
2018-07-15T09:16:20.655Z,45.52
2018-07-15T09:21:25.081Z,45.04
2018-07-15T09:26:28.740Z,44.88
2018-07-15T09:31:32.418Z,44.91
2018-07-15T09:36:36.146Z,45.14
2018-07-15T09:41:39.863Z,45.09
2018-07-15T09:46:43.619Z,45.32
2018-07-15T09:51:47.301Z,45.05
2018-07-15T09:56:50.972Z,44.73
2018-07-15T10:01:54.688Z,45.10
2018-07-15T10:06:58.378Z,45.29
2018-07-15T10:12:02.770Z,44.30
2018-07-15T10:17:06.527Z,44.52
2018-07-15T10:22:10.514Z,44.88
2018-07-15T10:27:14.291Z,45.28
2018-07-15T10:32:17.956Z,44.92
2018-07-15T10:37:21.990Z,45.63
2018-07-15T10:42:25.674Z,45.61
2018-07-15T10:47:29.395Z,46.58
2018-07-15T10:52:33.125Z,48.01
2018-07-15T10:57:36.915Z,48.25
2018-07-15T11:02:40.635Z,46.75
2018-07-15T11:07:45.021Z,48.15
2018-07-15T11:12:48.702Z,46.98
2018-07-15T11:17:52.403Z,46.39
2018-07-15T11:22:56.049Z,46.40
2018-07-15T11:28:00.715Z,45.93
2018-07-15T11:33:04.594Z,44.05
2018-07-15T11:38:08.323Z,45.19
2018-07-15T11:43:11.996Z,45.63
2018-07-15T11:48:15.880Z,45.18
2018-07-15T11:53:19.539Z,45.38
2018-07-15T11:58:23.350Z,45.60
2018-07-15T12:03:27.033Z,45.21
2018-07-15T12:08:30.707Z,45.61
2018-07-15T12:13:34.423Z,45.33
2018-07-15T12:18:38.227Z,43.88
2018-07-15T12:23:42.236Z,43.57
2018-07-15T12:28:47.243Z,44.13
2018-07-15T12:33:50.993Z,44.33
2018-07-15T12:38:55.502Z,44.54
2018-07-15T12:43:59.208Z,44.71
2018-07-15T12:49:02.872Z,44.37
2018-07-15T12:54:06.778Z,44.59
2018-07-15T12:59:11.463Z,44.19
2018-07-15T13:04:15.148Z,43.48
2018-07-15T13:09:18.880Z,44.20
2018-07-15T13:14:22.542Z,44.27
2018-07-15T13:19:26.254Z,44.23
2018-07-15T13:24:29.980Z,44.98
2018-07-15T13:29:33.859Z,44.80
2018-07-15T13:34:37.582Z,44.86
2018-07-15T13:39:41.287Z,44.72
2018-07-15T13:44:44.924Z,45.35
2018-07-15T13:49:48.623Z,45.07
2018-07-15T13:54:52.322Z,45.37
2018-07-15T13:59:56.074Z,45.65
2018-07-15T14:04:59.792Z,45.02
2018-07-15T14:10:04.885Z,44.35
2018-07-15T14:15:08.651Z,43.03
2018-07-15T14:20:12.254Z,43.24
2018-07-15T14:25:15.983Z,43.89
2018-07-15T14:30:19.646Z,43.03
2018-07-15T14:35:23.288Z,42.67
2018-07-15T14:40:27.148Z,42.06
2018-07-15T14:45:30.894Z,42.35
2018-07-15T14:50:34.498Z,42.97
2018-07-15T14:55:38.820Z,43.01
2018-07-15T15:00:42.516Z,43.48
2018-07-15T15:05:46.351Z,43.81
2018-07-15T15:10:50.010Z,44.07
2018-07-15T15:15:53.702Z,44.33
2018-07-15T15:20:57.371Z,44.14
2018-07-15T15:26:00.990Z,44.60
2018-07-15T15:31:04.625Z,44.74
2018-07-15T15:36:08.326Z,44.47
2018-07-15T15:41:12.111Z,44.50
2018-07-15T15:46:15.934Z,45.02
2018-07-15T15:51:19.613Z,45.00
2018-07-15T15:56:23.291Z,44.93
2018-07-15T16:01:27.092Z,44.77
2018-07-15T16:06:30.845Z,44.80
2018-07-15T16:11:34.529Z,45.43
2018-07-15T16:16:38.242Z,45.25
2018-07-15T16:21:41.934Z,45.44
2018-07-15T16:26:45.615Z,45.15
2018-07-15T16:31:49.311Z,45.38
2018-07-15T16:36:52.994Z,45.31
2018-07-15T16:41:56.716Z,45.38
2018-07-15T16:47:00.424Z,45.30
2018-07-15T16:52:04.139Z,45.57
2018-07-15T16:57:07.871Z,45.57
2018-07-15T17:02:11.520Z,44.71
2018-07-15T17:07:15.166Z,44.50
2018-07-15T17:12:18.861Z,44.77
2018-07-15T17:17:23.664Z,44.43
2018-07-15T17:22:27.392Z,44.20
2018-07-15T17:27:31.196Z,44.61
2018-07-15T17:32:35.002Z,43.91
2018-07-15T17:40:31.780Z,43.74
2018-07-15T17:45:35.689Z,43.71
2018-07-15T17:50:39.601Z,43.35
2018-07-15T17:55:43.424Z,42.66
2018-07-15T18:00:47.863Z,41.40
2018-07-15T18:05:51.690Z,40.77
2018-07-15T18:10:55.627Z,41.38
2018-07-15T18:15:59.424Z,41.09
2018-07-15T18:21:03.334Z,40.88
2018-07-15T18:26:07.214Z,40.15
2018-07-15T18:31:11.079Z,39.78
2018-07-15T18:36:14.952Z,40.16
2018-07-15T18:41:18.854Z,38.75
2018-07-15T18:46:22.738Z,39.74
2018-07-15T18:51:26.581Z,40.21
2018-07-15T18:56:30.407Z,40.41
2018-07-15T19:01:34.512Z,40.18
2018-07-15T19:06:38.373Z,40.49
2018-07-15T19:11:42.318Z,40.24
2018-07-15T19:16:46.124Z,39.61
2018-07-15T19:21:49.984Z,40.32
2018-07-15T19:26:53.840Z,39.90
2018-07-15T19:31:58.474Z,39.05
2018-07-15T19:37:02.884Z,38.91
2018-07-15T19:42:07.142Z,38.27
2018-07-15T19:47:10.937Z,38.57
2018-07-15T19:52:14.751Z,38.75
2018-07-15T19:57:19.257Z,38.39
2018-07-15T20:02:23.057Z,39.03
2018-07-15T20:07:27.358Z,38.87
2018-07-15T20:12:31.232Z,38.67
2018-07-15T20:17:35.346Z,38.38
2018-07-15T20:22:39.151Z,38.25
2018-07-15T20:27:43.144Z,38.47
2018-07-15T20:32:47.039Z,38.40
2018-07-15T20:37:50.831Z,38.43
2018-07-15T20:42:54.965Z,37.68
2018-07-15T20:47:59.026Z,38.14
2018-07-15T20:53:02.947Z,39.18
2018-07-15T20:58:06.842Z,37.95
2018-07-15T21:03:10.680Z,37.23
2018-07-15T21:08:14.539Z,38.12
2018-07-15T21:13:18.403Z,37.54
2018-07-15T21:18:22.156Z,37.95
2018-07-15T21:23:26.099Z,38.27
2018-07-15T21:28:29.923Z,38.54
2018-07-15T21:33:33.766Z,38.25
2018-07-15T21:38:37.607Z,38.16
2018-07-15T21:43:41.385Z,39.12
2018-07-15T21:48:45.224Z,38.87
2018-07-15T21:53:49.086Z,39.60
2018-07-15T21:58:52.953Z,39.34
2018-07-15T22:03:56.773Z,39.24
2018-07-15T22:11:13.749Z,39.12
2018-07-15T22:16:17.595Z,39.85
2018-07-15T22:21:21.468Z,39.18
2018-07-15T22:26:25.280Z,39.72
2018-07-15T22:31:29.213Z,40.03
2018-07-15T22:36:33.010Z,40.52
2018-07-15T22:41:37.213Z,39.66
2018-07-15T22:46:41.078Z,38.86
2018-07-15T22:51:44.987Z,39.31
2018-07-15T22:56:48.719Z,39.81
2018-07-15T23:01:52.509Z,39.66
2018-07-15T23:06:56.367Z,40.34
2018-07-15T23:12:00.581Z,40.09
2018-07-15T23:17:05.021Z,39.93
2018-07-15T23:22:09.255Z,40.23
2018-07-15T23:27:14.190Z,40.13
2018-07-15T23:32:18.111Z,40.17
2018-07-15T23:37:22.065Z,40.08
2018-07-15T23:42:25.908Z,40.73
2018-07-15T23:47:29.872Z,40.53
2018-07-15T23:52:33.695Z,40.38
2018-07-15T23:57:37.551Z,40.97
